createdAt,value
2024-03-16T00:02:01.602Z,7.35
2024-03-16T00:04:28.028Z,6.38
2024-03-16T00:06:54.559Z,7.00
2024-03-16T00:09:21.339Z,9.48
2024-03-16T00:11:48.239Z,7.75
2024-03-16T00:14:14.840Z,7.30
2024-03-16T00:16:41.404Z,7.45
2024-03-16T00:19:08.136Z,8.98
2024-03-16T00:21:34.683Z,9.50
2024-03-16T00:24:01.195Z,8.60
2024-03-16T00:26:27.654Z,7.15
2024-03-16T00:28:54.135Z,7.10
2024-03-16T00:31:20.898Z,7.95
2024-03-16T00:33:47.880Z,7.15
2024-03-16T00:36:14.440Z,9.32
2024-03-16T00:38:41.161Z,7.68
2024-03-16T00:41:08.181Z,8.07
2024-03-16T00:43:34.604Z,9.35
2024-03-16T00:46:01.123Z,9.85
2024-03-16T00:48:27.983Z,9.45
2024-03-16T00:50:54.706Z,8.52
2024-03-16T00:53:21.121Z,7.25
2024-03-16T00:55:47.559Z,9.95
2024-03-16T00:58:14.026Z,6.60
2024-03-16T01:00:41.340Z,7.93
2024-03-16T01:03:07.838Z,8.45
2024-03-16T01:05:34.270Z,7.38
2024-03-16T01:08:00.781Z,10.32
2024-03-16T01:10:27.278Z,9.02
2024-03-16T01:12:53.914Z,8.93
2024-03-16T01:15:21.953Z,9.10
2024-03-16T01:17:48.678Z,8.68
2024-03-16T01:20:15.353Z,9.50
2024-03-16T01:22:41.798Z,9.95
2024-03-16T01:25:08.373Z,9.75
2024-03-16T01:27:35.283Z,9.50
2024-03-16T01:30:03.356Z,12.10
2024-03-16T01:32:29.880Z,11.00
2024-03-16T01:34:56.337Z,13.02
2024-03-16T01:37:22.884Z,10.15
2024-03-16T01:39:51.025Z,8.52
2024-03-16T01:42:17.707Z,12.13
2024-03-16T01:45:05.207Z,9.32
2024-03-16T01:47:32.868Z,12.23
2024-03-16T01:50:00.256Z,13.23
2024-03-16T01:54:54.513Z,14.05
2024-03-16T01:57:21.175Z,9.55
2024-03-16T01:59:50.014Z,14.85
2024-03-16T02:02:31.912Z,15.65
2024-03-16T02:04:58.382Z,12.32
2024-03-16T02:07:25.199Z,11.32
2024-03-16T02:09:51.744Z,10.00
2024-03-16T02:12:18.195Z,10.23
2024-03-16T02:14:44.750Z,8.85
2024-03-16T02:17:12.199Z,9.35
2024-03-16T02:19:38.991Z,10.75
2024-03-16T02:22:06.881Z,9.38
2024-03-16T02:24:36.553Z,9.10
2024-03-16T02:27:03.167Z,10.75
2024-03-16T02:29:29.654Z,9.20
2024-03-16T02:31:56.293Z,10.57
2024-03-16T02:34:22.831Z,6.57
2024-03-16T02:36:49.495Z,7.45
2024-03-16T02:39:16.046Z,7.30
2024-03-16T02:41:42.896Z,9.45
2024-03-16T02:44:10.322Z,8.73
2024-03-16T02:49:03.243Z,6.13
2024-03-16T02:51:29.717Z,7.03
2024-03-16T02:53:57.716Z,7.20
2024-03-16T02:56:24.182Z,7.28
2024-03-16T02:58:51.186Z,7.35
2024-03-16T03:01:18.085Z,7.65
2024-03-16T03:03:44.730Z,7.45
2024-03-16T03:06:11.190Z,8.95
2024-03-16T03:08:37.685Z,5.43
2024-03-16T03:11:05.148Z,7.20
2024-03-16T03:13:31.783Z,5.15
2024-03-16T03:15:58.291Z,7.90
2024-03-16T03:18:27.522Z,7.28
2024-03-16T03:20:54.077Z,5.95
2024-03-16T03:23:20.705Z,4.78
2024-03-16T03:25:48.495Z,4.80
2024-03-16T03:28:16.084Z,3.78
2024-03-16T03:30:43.018Z,5.38
2024-03-16T03:33:10.121Z,6.55
2024-03-16T03:35:36.993Z,6.70
2024-03-16T03:38:03.701Z,5.43
2024-03-16T03:40:30.561Z,4.57
2024-03-16T03:43:01.124Z,4.93
2024-03-16T03:45:51.305Z,5.00
2024-03-16T03:48:24.178Z,9.52
2024-03-16T03:50:51.171Z,5.95
2024-03-16T03:53:18.170Z,6.13
2024-03-16T03:55:45.098Z,7.40
2024-03-16T03:58:11.650Z,6.85
2024-03-16T04:00:38.378Z,5.18
2024-03-16T04:03:08.005Z,4.05
2024-03-16T04:05:34.622Z,3.42
2024-03-16T04:08:01.595Z,4.25
2024-03-16T04:10:28.304Z,7.22
2024-03-16T04:12:55.404Z,5.82
2024-03-16T04:15:21.978Z,6.80
2024-03-16T04:17:48.604Z,4.40
2024-03-16T04:20:15.166Z,2.70
2024-03-16T04:22:42.370Z,4.78
2024-03-16T04:25:10.678Z,5.38
2024-03-16T04:27:37.236Z,7.45
2024-03-16T04:30:04.170Z,3.38
2024-03-16T04:32:31.626Z,3.85
2024-03-16T04:37:24.640Z,4.35
2024-03-16T04:39:51.299Z,4.22
2024-03-16T04:42:17.714Z,2.83
2024-03-16T04:44:44.285Z,3.67
2024-03-16T04:47:10.922Z,5.88
2024-03-16T04:49:37.392Z,3.25
2024-03-16T04:52:04.013Z,3.60
2024-03-16T04:54:30.522Z,7.57
2024-03-16T04:56:57.026Z,5.93
2024-03-16T04:59:23.427Z,4.13
2024-03-16T05:01:50.046Z,5.30
2024-03-16T05:04:16.747Z,3.58
2024-03-16T05:06:43.271Z,4.40
2024-03-16T05:09:10.439Z,4.32
2024-03-16T05:11:37.665Z,5.70
2024-03-16T05:14:07.992Z,4.50
2024-03-16T05:16:34.990Z,4.53
2024-03-16T05:19:05.152Z,4.57
2024-03-16T05:21:32.172Z,5.07
2024-03-16T05:24:00.545Z,4.97
2024-03-16T05:26:27.681Z,12.05
2024-03-16T05:28:54.145Z,9.73
2024-03-16T05:31:20.589Z,10.48
2024-03-16T05:33:47.119Z,9.85
2024-03-16T05:36:13.983Z,7.03
2024-03-16T05:38:41.039Z,6.18
2024-03-16T05:41:08.127Z,3.90
2024-03-16T05:43:34.834Z,3.47
2024-03-16T05:46:01.470Z,4.82
2024-03-16T05:48:28.651Z,11.80
2024-03-16T05:50:55.143Z,5.47
2024-03-16T05:53:21.584Z,3.33
2024-03-16T05:55:48.085Z,3.83
2024-03-16T05:58:14.832Z,2.03
2024-03-16T06:00:41.297Z,5.45
2024-03-16T06:03:07.954Z,4.15
2024-03-16T06:05:34.763Z,3.78
2024-03-16T06:08:01.433Z,5.72
2024-03-16T06:10:29.058Z,3.65
2024-03-16T06:12:55.635Z,5.43
2024-03-16T06:15:22.304Z,3.85
2024-03-16T06:17:50.426Z,3.63
2024-03-16T06:20:17.375Z,5.22
2024-03-16T06:22:45.802Z,4.15
2024-03-16T06:25:14.101Z,5.28
2024-03-16T06:27:55.314Z,3.67
2024-03-16T06:30:29.430Z,2.80
2024-03-16T06:33:11.521Z,4.43
2024-03-16T06:35:38.106Z,7.32
2024-03-16T06:38:04.636Z,5.13
2024-03-16T06:40:31.329Z,6.85
2024-03-16T06:42:57.822Z,6.90
2024-03-16T06:45:24.442Z,10.57
2024-03-16T06:47:50.878Z,5.43
2024-03-16T06:50:17.402Z,4.63
2024-03-16T06:52:43.892Z,5.70
2024-03-16T06:55:10.557Z,5.30
2024-03-16T06:57:37.033Z,5.55
2024-03-16T07:00:03.645Z,4.28
2024-03-16T07:02:30.138Z,4.40
2024-03-16T07:04:57.263Z,5.00
2024-03-16T07:07:24.383Z,6.35
2024-03-16T07:09:50.904Z,5.78
2024-03-16T07:12:17.995Z,6.55
2024-03-16T07:14:44.718Z,6.72
2024-03-16T07:17:11.185Z,4.22
2024-03-16T07:19:37.776Z,3.03
2024-03-16T07:22:04.306Z,5.45
2024-03-16T07:24:30.830Z,3.65
2024-03-16T07:26:57.287Z,7.95
2024-03-16T07:29:25.059Z,4.82
2024-03-16T07:31:51.785Z,4.22
2024-03-16T07:34:18.302Z,3.88
2024-03-16T07:36:45.429Z,4.57
2024-03-16T07:39:12.368Z,9.18
2024-03-16T07:41:38.908Z,5.82
2024-03-16T07:44:05.331Z,5.25
2024-03-16T07:46:32.049Z,5.85
2024-03-16T07:49:00.364Z,9.13
2024-03-16T07:51:30.623Z,10.10
2024-03-16T07:53:57.332Z,6.13
2024-03-16T07:56:23.824Z,3.42
2024-03-16T07:58:50.775Z,6.32
2024-03-16T08:01:17.848Z,5.32
2024-03-16T08:03:44.833Z,12.73
2024-03-16T08:06:12.148Z,5.50
2024-03-16T08:08:39.981Z,5.78
2024-03-16T08:11:08.357Z,6.65
2024-03-16T08:13:35.732Z,4.40
2024-03-16T08:16:02.360Z,9.52
2024-03-16T08:18:28.853Z,14.95
2024-03-16T08:21:01.491Z,6.75
2024-03-16T08:23:29.311Z,7.25
2024-03-16T08:25:55.968Z,14.60
2024-03-16T08:28:22.746Z,4.85
2024-03-16T08:30:49.279Z,6.80
2024-03-16T08:33:15.820Z,4.18
2024-03-16T08:35:42.682Z,3.72
2024-03-16T08:38:09.140Z,5.03
2024-03-16T08:40:35.668Z,4.80
2024-03-16T08:43:02.266Z,4.18
2024-03-16T08:45:29.049Z,2.70
2024-03-16T08:47:55.570Z,6.07
2024-03-16T08:50:22.161Z,3.42
2024-03-16T08:52:50.165Z,6.40
2024-03-16T08:55:18.547Z,3.88
2024-03-16T08:57:45.132Z,4.30
2024-03-16T09:00:17.638Z,3.72
2024-03-16T09:02:44.553Z,4.25
2024-03-16T09:05:11.821Z,6.00
2024-03-16T09:07:39.782Z,4.88
2024-03-16T09:10:07.845Z,4.07
2024-03-16T09:12:37.633Z,3.50
2024-03-16T09:15:06.969Z,4.72
2024-03-16T09:17:37.612Z,3.45
2024-03-16T09:20:11.914Z,4.60
2024-03-16T09:22:38.956Z,6.03
2024-03-16T09:25:07.071Z,5.25
2024-03-16T09:27:34.945Z,4.88
2024-03-16T09:30:02.272Z,10.40
2024-03-16T09:32:28.883Z,6.35
2024-03-16T09:34:55.436Z,4.63
2024-03-16T09:37:22.399Z,8.65
2024-03-16T09:39:49.076Z,6.75
2024-03-16T09:42:15.676Z,5.18
